Time;durP1;ratioP1;P1;durP2;ratioP2;P2;SDS_P1;SDS_P2;PMS_P1;PMS_P2;Temp;Humidity;BMP_temperature;BMP_pressure;BME280_temperature;BME280_humidity;BME280_pressure;Samples;Min_cycle;Max_cycle;Signal;HPM_P1;HPM_P2
2022/12/01 00:00:27;;;;;;;31.23;12.90;;;;;;;5.20;92.63;102604.13;5084995;28;20028;-77
2022/12/01 00:02:52;;;;;;;37.90;14.57;;;;;;;5.20;92.20;102604.13;5076280;28;20091;-78
2022/12/01 00:05:17;;;;;;;38.45;15.30;;;;;;;5.17;92.52;102604.91;5066151;28;20028;-77
2022/12/01 00:07:43;;;;;;;40.30;14.93;;;;;;;5.18;92.32;102605.78;5063519;28;20052;-77
2022/12/01 00:10:25;;;;;;;35.17;13.18;;;;;;;5.17;92.37;102599.75;5071055;28;20097;-78
2022/12/01 00:12:51;;;;;;;36.83;14.73;;;;;;;5.12;92.01;102596.19;5073332;28;20396;-78
2022/12/01 00:15:17;;;;;;;35.38;13.23;;;;;;;5.09;92.04;102604.72;5069210;28;20028;-77
2022/12/01 00:17:44;;;;;;;33.30;13.95;;;;;;;5.09;92.41;102601.28;5071463;28;20103;-78
2022/12/01 00:20:11;;;;;;;32.37;13.17;;;;;;;5.06;92.54;102601.19;5075770;28;20111;-78
2022/12/01 00:22:36;;;;;;;31.15;13.05;;;;;;;5.07;92.02;102595.19;5061929;28;20028;-78
2022/12/01 00:25:02;;;;;;;34.30;13.27;;;;;;;5.03;91.99;102591.66;5065551;28;20044;-78
2022/12/01 00:27:28;;;;;;;34.03;13.35;;;;;;;5.03;92.41;102595.94;5069629;28;20074;-77
2022/12/01 00:29:53;;;;;;;32.33;13.35;;;;;;;5.03;92.34;102593.38;5070967;28;20462;-77
2022/12/01 00:32:18;;;;;;;35.60;13.68;;;;;;;5.03;92.61;102596.84;5075289;28;20039;-78
2022/12/01 00:34:43;;;;;;;31.77;13.63;;;;;;;5.04;92.44;102592.53;5072466;28;20035;-78
2022/12/01 00:37:09;;;;;;;34.67;13.73;;;;;;;5.05;92.51;102589.13;5067755;28;20453;-77
2022/12/01 00:39:34;;;;;;;39.03;13.52;;;;;;;5.05;92.62;102589.13;5067111;28;20025;-78
2022/12/01 00:41:59;;;;;;;34.53;13.60;;;;;;;5.06;92.32;102588.28;5083765;28;20036;-78
2022/12/01 00:44:24;;;;;;;37.10;13.55;;;;;;;5.06;92.70;102596.03;5081268;28;20063;-78
2022/12/01 00:46:50;;;;;;;37.42;14.48;;;;;;;5.06;92.02;102591.72;5066117;28;20039;-77
2022/12/01 00:49:15;;;;;;;37.40;14.05;;;;;;;5.04;92.41;102597.69;5072455;28;20090;-78
2022/12/01 00:51:40;;;;;;;35.60;15.13;;;;;;;5.03;92.42;102589.09;5075684;28;20384;-78
2022/12/01 00:54:06;;;;;;;40.20;15.25;;;;;;;5.01;92.19;102593.34;5079393;28;20132;-77
2022/12/01 00:56:31;;;;;;;38.25;14.77;;;;;;;5.00;92.74;102595.03;5074464;28;20114;-77
2022/12/01 00:58:57;;;;;;;38.63;15.38;;;;;;;4.99;92.52;102597.56;5072994;28;20086;-77
2022/12/01 01:01:22;;;;;;;36.88;13.63;;;;;;;4.99;92.36;102593.28;5075187;28;20071;-78
2022/12/01 01:03:47;;;;;;;39.13;14.93;;;;;;;4.97;92.51;102592.38;5074068;28;20052;-78
2022/12/01 01:06:13;;;;;;;35.63;15.35;;;;;;;4.97;92.74;102594.94;5084282;28;20066;-78
2022/12/01 01:08:39;;;;;;;41.35;14.68;;;;;;;4.96;92.64;102600.06;5069020;28;20456;-78
2022/12/01 01:11:06;;;;;;;34.15;13.52;;;;;;;4.96;92.87;102592.34;5065529;28;20033;-78
2022/12/01 01:13:32;;;;;;;32.35;13.32;;;;;;;4.97;93.03;102597.53;5067865;28;20016;-78
2022/12/01 01:15:59;;;;;;;35.53;14.38;;;;;;;4.98;92.89;102607.00;5075552;28;20394;-78
2022/12/01 01:18:25;;;;;;;39.10;14.70;;;;;;;4.99;92.44;102611.34;5062924;28;20101;-77
2022/12/01 01:21:05;;;;;;;39.07;15.03;;;;;;;4.99;93.06;102606.19;5060816;28;20032;-78
2022/12/01 01:23:31;;;;;;;37.90;14.10;;;;;;;5.00;92.71;102612.22;5070727;28;20130;-78
2022/12/01 01:26:05;;;;;;;35.92;14.98;;;;;;;5.01;92.77;102608.81;5062736;28;20034;-78
2022/12/01 01:28:31;;;;;;;36.30;14.18;;;;;;;4.99;92.67;102608.75;5061758;28;20056;-78
2022/12/01 01:30:57;;;;;;;32.53;13.38;;;;;;;5.03;93.07;102612.31;5057597;28;20028;-78
2022/12/01 01:33:22;;;;;;;43.30;14.35;;;;;;;5.04;92.94;102613.16;5074577;28;20109;-78
2022/12/01 01:35:47;;;;;;;36.92;14.57;;;;;;;5.02;92.94;102615.72;5089382;28;20095;-78
2022/12/01 01:38:13;;;;;;;39.28;14.88;;;;;;;5.01;92.72;102617.41;5073063;28;20032;-78
2022/12/01 01:40:45;;;;;;;40.22;14.60;;;;;;;4.99;92.80;102621.66;5062221;28;20127;-77
2022/12/01 01:43:15;;;;;;;41.75;15.38;;;;;;;4.98;92.83;102622.47;5054537;28;20064;-78
2022/12/01 01:45:40;;;;;;;41.10;15.18;;;;;;;4.97;92.86;102628.47;5074604;28;20043;-77
2022/12/01 01:48:06;;;;;;;44.25;16.15;;;;;;;4.95;92.73;102624.97;5054765;28;20033;-78
2022/12/01 01:50:32;;;;;;;42.95;15.52;;;;;;;4.92;92.64;102626.59;5062298;28;20035;-77
2022/12/01 01:53:01;;;;;;;45.25;16.85;;;;;;;4.90;92.80;102626.59;5071553;28;20028;-78
2022/12/01 01:55:28;;;;;;;43.47;15.75;;;;;;;4.89;93.27;102630.00;5085078;28;20121;-78
2022/12/01 01:57:54;;;;;;;40.65;14.98;;;;;;;4.90;93.00;102621.44;5065489;28;20024;-78
2022/12/01 02:00:20;;;;;;;41.63;15.40;;;;;;;4.92;92.81;102619.75;5072718;28;20032;-78
2022/12/01 02:02:48;;;;;;;39.97;15.00;;;;;;;4.91;93.35;102618.00;5078011;28;20036;-78
2022/12/01 02:05:21;;;;;;;38.33;14.60;;;;;;;4.92;93.11;102622.34;5054749;28;20028;-77
2022/12/01 02:07:48;;;;;;;44.58;15.60;;;;;;;4.90;93.21;102621.44;5062777;28;20024;-77
2022/12/01 02:10:21;;;;;;;37.30;15.40;;;;;;;4.89;93.23;102616.19;5059275;28;20032;-77
2022/12/01 02:12:46;;;;;;;35.90;14.02;;;;;;;4.88;93.14;102615.34;5065718;28;20120;-78
2022/12/01 02:15:43;;;;;;;35.05;14.05;;;;;;;4.90;92.96;102626.59;5065952;28;20111;-78
2022/12/01 02:18:24;;;;;;;35.17;13.80;;;;;;;4.91;92.94;102619.69;5074577;28;20048;-78
2022/12/01 02:21:19;;;;;;;34.53;13.10;;;;;;;4.90;93.22;102613.69;5071277;28;20036;-77
2022/12/01 02:24:09;;;;;;;35.17;13.82;;;;;;;4.90;93.09;102620.53;5068296;28;20115;-78
2022/12/01 02:26:59;;;;;;;34.15;12.82;;;;;;;4.91;93.24;102618.00;5068245;28;20098;-77
2022/12/01 02:29:36;;;;;;;32.97;13.60;;;;;;;4.90;93.12;102617.94;5069136;28;20465;-78
2022/12/01 02:32:15;;;;;;;39.08;14.02;;;;;;;4.90;92.95;102621.44;5103785;28;20035;-77
2022/12/01 02:34:47;;;;;;;33.80;13.07;;;;;;;4.91;93.05;102623.16;5072692;28;20062;-78
2022/12/01 02:37:17;;;;;;;31.40;13.38;;;;;;;4.92;92.90;102626.59;5068257;28;20036;-77
2022/12/01 02:40:00;;;;;;;35.58;12.52;;;;;;;4.93;92.96;102621.50;5056195;28;20045;-78
2022/12/01 02:42:52;;;;;;;32.08;13.15;;;;;;;4.92;93.18;102618.88;5070127;28;20085;-78
2022/12/01 02:45:47;;;;;;;32.88;13.18;;;;;;;4.96;93.03;102626.72;5041300;28;20025;-78
2022/12/01 02:48:21;;;;;;;34.75;13.85;;;;;;;4.94;93.28;102619.78;5070944;28;20081;-77
2022/12/01 02:50:48;;;;;;;32.78;13.05;;;;;;;4.94;92.91;102620.69;5069654;28;20020;-78
2022/12/01 02:53:17;;;;;;;34.72;13.95;;;;;;;4.94;93.09;102622.38;5073072;28;20107;-77
2022/12/01 02:55:54;;;;;;;35.95;13.75;;;;;;;4.93;93.01;102620.63;5063657;28;20028;-78
2022/12/01 02:58:20;;;;;;;36.00;14.50;;;;;;;4.90;93.15;102624.00;5080466;28;20035;-78
2022/12/01 03:01:20;;;;;;;36.45;14.65;;;;;;;4.92;93.27;102624.03;5067840;28;20020;-77
2022/12/01 03:04:01;;;;;;;33.33;13.73;;;;;;;4.91;93.20;102628.34;5080427;28;20124;-78
2022/12/01 03:06:45;;;;;;;33.45;13.93;;;;;;;4.93;93.35;102625.78;5068250;28;20029;-77
2022/12/01 03:09:35;;;;;;;35.22;13.88;;;;;;;4.94;93.34;102631.00;5072024;28;20024;-77
2022/12/01 03:12:18;;;;;;;36.90;14.73;;;;;;;4.93;93.05;102626.66;5074473;28;20103;-77
2022/12/01 03:15:15;;;;;;;42.17;15.98;;;;;;;4.94;92.92;102628.41;5065823;28;20372;-78
2022/12/01 03:17:49;;;;;;;33.17;13.93;;;;;;;4.93;92.72;102629.25;5071705;28;20667;-77
2022/12/01 03:20:22;;;;;;;38.22;13.80;;;;;;;4.90;93.33;102631.75;5072921;28;20059;-78
2022/12/01 03:22:58;;;;;;;33.65;13.57;;;;;;;4.89;93.23;102635.16;5069193;28;20028;-78
2022/12/01 03:25:25;;;;;;;31.92;14.40;;;;;;;4.90;93.36;102630.84;5063623;28;20035;-78
2022/12/01 03:27:55;;;;;;;33.20;13.65;;;;;;;4.88;93.16;102628.25;5064121;28;20016;-78
2022/12/01 03:30:23;;;;;;;35.17;14.27;;;;;;;4.89;93.30;102618.78;5071853;28;20035;-77
2022/12/01 03:32:54;;;;;;;34.08;13.43;;;;;;;4.90;93.09;102623.13;5073979;28;20158;-78
2022/12/01 03:35:25;;;;;;;33.05;14.32;;;;;;;4.88;93.02;102628.25;5064249;28;20468;-78
2022/12/01 03:38:04;;;;;;;35.30;14.40;;;;;;;4.90;93.21;102626.59;5054145;28;20032;-78
2022/12/01 03:40:35;;;;;;;31.27;13.48;;;;;;;4.90;93.15;102624.00;5067579;28;20060;-77
2022/12/01 03:43:06;;;;;;;30.95;13.90;;;;;;;4.91;92.97;102630.91;5060045;28;20490;-78
2022/12/01 03:45:46;;;;;;;37.07;14.30;;;;;;;4.91;93.22;102633.50;5064221;28;20037;-78
2022/12/01 03:48:12;;;;;;;35.53;14.50;;;;;;;4.94;93.47;102624.94;5071724;28;20501;-78
2022/12/01 03:50:52;;;;;;;35.55;14.02;;;;;;;4.92;93.28;102624.91;5069601;28;20058;-78
2022/12/01 03:53:24;;;;;;;34.67;13.85;;;;;;;4.91;92.97;102622.28;5070042;28;20031;-78
2022/12/01 03:55:56;;;;;;;30.85;13.55;;;;;;;4.90;92.80;102617.94;5069936;28;20025;-78
2022/12/01 03:58:29;;;;;;;31.30;13.10;;;;;;;4.90;93.19;102621.44;5063231;28;20389;-78
2022/12/01 04:00:56;;;;;;;34.08;14.57;;;;;;;4.91;92.88;102625.75;5073361;28;20035;-78
2022/12/01 04:03:24;;;;;;;32.92;13.88;;;;;;;4.93;93.47;102630.94;5083276;28;20028;-77
2022/12/01 04:05:50;;;;;;;31.15;13.15;;;;;;;4.93;93.12;102637.00;5074606;28;20461;-78
2022/12/01 04:08:15;;;;;;;36.28;14.32;;;;;;;4.94;93.06;102637.84;5076881;28;20097;-78
2022/12/01 04:10:41;;;;;;;30.80;13.80;;;;;;;4.93;93.11;102637.00;5079786;28;20087;-78
2022/12/01 04:13:10;;;;;;;33.88;14.70;;;;;;;4.92;93.12;102637.81;5067753;28;20085;-78
2022/12/01 04:15:36;;;;;;;28.88;12.82;;;;;;;4.93;93.05;102636.09;5076474;28;20024;-77
2022/12/01 04:18:01;;;;;;;32.67;13.55;;;;;;;4.92;92.81;102635.25;5068051;28;20048;-78
2022/12/01 04:20:27;;;;;;;30.90;13.40;;;;;;;4.92;93.45;102631.75;5076490;28;20062;-77
2022/12/01 04:22:52;;;;;;;28.43;12.40;;;;;;;4.94;93.31;102633.56;5074827;28;20036;-78
2022/12/01 04:25:17;;;;;;;30.35;13.55;;;;;;;4.92;93.16;102635.25;5078262;28;20547;-78
2022/12/01 04:27:43;;;;;;;31.27;13.93;;;;;;;4.91;93.20;102630.91;5074194;28;20025;-78
2022/12/01 04:30:09;;;;;;;30.77;13.35;;;;;;;4.92;93.18;102632.66;5088178;28;20224;-77
2022/12/01 04:32:39;;;;;;;30.35;12.30;;;;;;;4.90;93.32;102626.59;5080690;28;20032;-77
2022/12/01 04:35:05;;;;;;;33.55;13.45;;;;;;;4.91;93.25;102640.34;5083159;28;20043;-77
2022/12/01 04:37:31;;;;;;;31.23;12.82;;;;;;;4.90;93.34;102631.75;5070553;28;20033;-77
2022/12/01 04:39:56;;;;;;;31.85;13.73;;;;;;;4.89;93.15;102630.00;5071842;28;20029;-78
2022/12/01 04:42:21;;;;;;;30.70;13.52;;;;;;;4.88;93.04;102627.34;5086975;28;20398;-78
2022/12/01 04:44:46;;;;;;;30.92;13.50;;;;;;;4.86;93.23;102624.75;5075564;28;20106;-77
2022/12/01 04:47:12;;;;;;;32.33;12.82;;;;;;;4.86;93.10;102628.22;5082006;28;20394;-77
2022/12/01 04:49:37;;;;;;;29.30;12.90;;;;;;;4.88;93.00;102632.50;5063713;28;20035;-77
2022/12/01 04:52:02;;;;;;;27.77;12.70;;;;;;;4.87;93.19;102629.06;5069390;28;20178;-78
2022/12/01 04:54:29;;;;;;;30.75;13.60;;;;;;;4.87;93.10;102631.66;5072148;28;20024;-77
2022/12/01 04:56:54;;;;;;;29.08;13.02;;;;;;;4.87;93.25;102631.66;5058206;28;20029;-78
2022/12/01 04:59:19;;;;;;;33.30;13.35;;;;;;;4.90;93.59;102636.00;5075049;28;20043;-78
2022/12/01 05:01:46;;;;;;;31.38;12.98;;;;;;;4.90;93.23;102624.00;5081826;28;20032;-78
2022/12/01 05:04:13;;;;;;;30.67;12.60;;;;;;;4.91;92.95;102627.44;5069668;28;20124;-77
2022/12/01 05:06:39;;;;;;;29.15;13.02;;;;;;;4.90;93.32;102630.84;5071585;28;20039;-78
2022/12/01 05:09:05;;;;;;;32.88;13.43;;;;;;;4.90;93.09;102631.75;5070736;28;20028;-78
2022/12/01 05:11:31;;;;;;;32.00;13.35;;;;;;;4.90;93.07;102636.91;5063618;28;20418;-78
2022/12/01 05:13:57;;;;;;;34.10;13.43;;;;;;;4.91;93.05;102633.50;5066440;28;20104;-78
2022/12/01 05:16:24;;;;;;;30.73;13.00;;;;;;;4.90;93.29;102630.84;5079545;28;20495;-77
2022/12/01 05:20:55;;;;;;;32.35;13.18;;;;;;;4.90;92.71;102641.16;5085899;28;20565;-78
2022/12/01 05:21:38;;;;;;;28.58;12.82;;;;;;;4.89;92.93;102644.56;5064674;28;20033;-77
2022/12/01 05:24:05;;;;;;;29.88;12.90;;;;;;;4.89;93.26;102640.31;5071377;28;20037;-78
2022/12/01 05:26:30;;;;;;;28.92;12.73;;;;;;;4.88;92.71;102638.56;5081858;28;20036;-77
2022/12/01 05:28:55;;;;;;;31.38;13.50;;;;;;;4.88;93.30;102635.09;5079589;28;20035;-78
2022/12/01 05:31:21;;;;;;;33.78;13.85;;;;;;;4.88;92.83;102638.56;5078374;28;20031;-77
2022/12/01 05:33:46;;;;;;;32.22;13.95;;;;;;;4.88;93.38;102638.56;5074460;28;20029;-78
2022/12/01 05:36:11;;;;;;;29.13;12.70;;;;;;;4.87;92.83;102641.97;5072702;28;20029;-78
2022/12/01 05:38:36;;;;;;;31.77;13.93;;;;;;;4.85;92.95;102639.34;5072565;28;20429;-77
2022/12/01 05:41:02;;;;;;;32.28;13.88;;;;;;;4.85;92.99;102643.63;5065612;28;20560;-77
2022/12/01 05:43:27;;;;;;;34.83;13.68;;;;;;;4.84;93.13;102647.03;5071881;28;20028;-78
2022/12/01 05:45:54;;;;;;;30.00;13.38;;;;;;;4.83;93.14;102642.72;5070497;28;20071;-77
2022/12/01 05:48:19;;;;;;;31.08;13.63;;;;;;;4.84;93.03;102642.78;5069135;28;20024;-77
2022/12/01 05:50:44;;;;;;;30.93;13.03;;;;;;;4.84;93.21;102647.03;5069912;28;20055;-78
2022/12/01 05:53:11;;;;;;;30.05;13.38;;;;;;;4.83;93.24;102647.88;5070901;28;20148;-77
2022/12/01 05:55:37;;;;;;;27.00;12.60;;;;;;;4.82;93.15;102647.00;5069633;28;20432;-78
2022/12/01 05:58:02;;;;;;;28.87;12.40;;;;;;;4.82;92.98;102640.97;5069933;28;20029;-78
2022/12/01 06:00:28;;;;;;;35.10;13.43;;;;;;;4.79;93.13;102641.75;5067407;28;20585;-78
2022/12/01 06:02:53;;;;;;;30.60;13.52;;;;;;;4.79;92.89;102643.44;5066853;28;20029;-78
2022/12/01 06:05:18;;;;;;;30.02;13.13;;;;;;;4.76;93.06;102643.38;5083981;28;20055;-78
2022/12/01 06:07:44;;;;;;;31.05;13.68;;;;;;;4.74;92.74;102642.47;5071444;28;20110;-77
2022/12/01 06:10:09;;;;;;;31.37;13.97;;;;;;;4.73;93.04;102649.31;5070644;28;20464;-77
2022/12/01 06:12:36;;;;;;;32.63;13.50;;;;;;;4.72;93.29;102652.72;5064817;28;20498;-78
2022/12/01 06:15:02;;;;;;;30.70;13.07;;;;;;;4.73;92.79;102653.63;5072899;28;20024;-78
2022/12/01 06:17:27;;;;;;;30.17;13.40;;;;;;;4.70;93.13;102650.13;5070934;28;20032;-77
2022/12/01 06:19:52;;;;;;;31.50;12.73;;;;;;;4.68;93.11;102654.34;5068824;28;20047;-78
2022/12/01 06:22:17;;;;;;;28.88;12.43;;;;;;;4.69;93.32;102661.25;5073513;28;20031;-78
2022/12/01 06:24:43;;;;;;;30.17;13.52;;;;;;;4.70;93.34;102660.44;5069145;28;20536;-78
2022/12/01 06:27:08;;;;;;;32.67;13.60;;;;;;;4.71;93.34;102648.41;5070593;28;20028;-78
2022/12/01 06:29:33;;;;;;;31.33;13.63;;;;;;;4.70;93.17;102655.28;5062703;28;20028;-78
2022/12/01 06:31:59;;;;;;;31.02;13.60;;;;;;;4.70;93.05;102650.13;5068893;28;20029;-77
2022/12/01 06:34:24;;;;;;;30.20;13.40;;;;;;;4.73;92.75;102651.03;5070442;28;20032;-78
2022/12/01 06:36:49;;;;;;;29.02;13.05;;;;;;;4.72;93.22;102655.31;5070281;28;20032;-78
2022/12/01 06:39:15;;;;;;;28.15;12.75;;;;;;;4.73;92.88;102654.47;5072881;28;20430;-78
2022/12/01 06:41:41;;;;;;;30.45;12.82;;;;;;;4.75;93.09;102659.69;5070868;28;20032;-78
2022/12/01 06:44:06;;;;;;;28.98;13.05;;;;;;;4.74;92.88;102650.22;5079297;28;20051;-78
2022/12/01 06:46:32;;;;;;;29.70;12.95;;;;;;;4.77;92.82;102655.44;5069956;28;20048;-78
2022/12/01 06:48:57;;;;;;;33.17;13.57;;;;;;;4.77;93.31;102664.03;5071815;28;20055;-78
2022/12/01 06:51:22;;;;;;;33.20;12.88;;;;;;;4.76;93.11;102670.03;5070588;28;20068;-79
2022/12/01 06:53:54;;;;;;;26.05;12.60;;;;;;;4.77;93.27;102669.19;5072568;28;20483;-79
2022/12/01 06:56:20;;;;;;;29.08;12.82;;;;;;;4.78;93.24;102672.66;5073138;28;20369;-79
2022/12/01 06:58:47;;;;;;;31.60;13.23;;;;;;;4.79;93.00;102671.81;5069973;28;20100;-77
2022/12/01 07:01:12;;;;;;;31.13;13.05;;;;;;;4.79;92.90;102672.69;5070861;28;20028;-77
2022/12/01 07:03:38;;;;;;;31.08;12.40;;;;;;;4.81;92.86;102680.47;5069745;28;20152;-78
2022/12/01 07:06:04;;;;;;;28.10;12.13;;;;;;;4.82;92.94;102682.22;5072196;28;20028;-77
2022/12/01 07:08:30;;;;;;;31.85;13.30;;;;;;;4.82;93.26;102692.53;5077119;28;20059;-78
2022/12/01 07:11:00;;;;;;;32.38;12.93;;;;;;;4.82;92.94;102692.53;5074397;28;20154;-77
2022/12/01 07:13:26;;;;;;;32.15;12.68;;;;;;;4.80;92.84;102692.50;5070536;28;20020;-78
2022/12/01 07:15:51;;;;;;;29.10;12.68;;;;;;;4.81;93.03;102690.78;5064250;28;20086;-77
2022/12/01 07:18:16;;;;;;;31.70;13.47;;;;;;;4.78;93.07;102689.00;5061048;28;20407;-78
2022/12/01 07:20:41;;;;;;;37.43;13.80;;;;;;;4.79;92.79;102692.44;5071537;28;20094;-77
2022/12/01 07:23:07;;;;;;;34.33;13.98;;;;;;;4.78;92.58;102693.31;5070563;28;20036;-78
2022/12/01 07:25:32;;;;;;;30.93;13.23;;;;;;;4.78;93.02;102699.31;5071317;28;20082;-78
2022/12/01 07:27:57;;;;;;;32.57;13.07;;;;;;;4.79;93.00;102695.03;5068502;28;20040;-78
2022/12/01 07:30:22;;;;;;;32.70;12.73;;;;;;;4.78;93.01;102694.16;5070628;28;20032;-78
2022/12/01 07:32:48;;;;;;;31.83;13.32;;;;;;;4.78;92.61;102698.47;5071423;28;20468;-78
2022/12/01 07:35:13;;;;;;;28.83;12.43;;;;;;;4.79;92.42;102700.19;5066991;28;20131;-78
2022/12/01 07:37:38;;;;;;;31.97;13.23;;;;;;;4.76;92.74;102700.97;5071771;28;20102;-77
2022/12/01 07:40:05;;;;;;;33.45;13.32;;;;;;;4.76;92.90;102694.97;5069157;28;20040;-77
2022/12/01 07:42:30;;;;;;;34.28;14.00;;;;;;;4.75;93.03;102693.22;5072077;28;20476;-77
2022/12/01 07:44:55;;;;;;;33.57;13.40;;;;;;;4.77;92.68;102696.72;5066016;28;20039;-78
2022/12/01 07:47:20;;;;;;;33.55;13.35;;;;;;;4.75;92.65;102703.53;5072505;28;20442;-78
2022/12/01 07:49:46;;;;;;;35.77;14.07;;;;;;;4.76;92.83;102703.56;5068110;28;20033;-78
2022/12/01 07:52:11;;;;;;;33.33;13.07;;;;;;;4.75;92.72;102708.69;5067639;28;20036;-78
2022/12/01 07:54:36;;;;;;;33.17;14.37;;;;;;;4.76;92.86;102700.13;5067211;28;20028;-78
2022/12/01 07:57:02;;;;;;;31.47;13.67;;;;;;;4.76;92.55;102700.97;5070945;28;20034;-78
2022/12/01 07:59:27;;;;;;;31.77;12.97;;;;;;;4.76;92.56;102700.97;5066645;28;20463;-78
2022/12/01 08:01:52;;;;;;;31.37;13.33;;;;;;;4.77;92.82;102701.88;5067525;28;20103;-78
2022/12/01 08:04:17;;;;;;;32.10;13.60;;;;;;;4.77;92.49;102709.59;5061572;28;20131;-77
2022/12/01 08:06:43;;;;;;;34.07;13.83;;;;;;;4.78;92.76;102708.78;5070602;28;20468;-78
2022/12/01 08:09:08;;;;;;;34.30;13.87;;;;;;;4.78;92.39;102708.78;5070750;28;20028;-77
2022/12/01 08:11:34;;;;;;;35.37;14.37;;;;;;;4.77;92.54;102707.88;5067401;28;20036;-78
2022/12/01 08:13:59;;;;;;;33.78;13.50;;;;;;;4.77;92.54;102712.19;5069413;28;20051;-78
2022/12/01 08:16:25;;;;;;;32.08;14.13;;;;;;;4.76;92.12;102716.44;5070743;28;20476;-77
2022/12/01 08:18:51;;;;;;;34.85;14.70;;;;;;;4.77;92.09;102717.34;5070360;28;20048;-78
2022/12/01 08:21:19;;;;;;;33.42;15.07;;;;;;;4.77;92.36;102712.19;5068546;28;20020;-77
2022/12/01 08:23:45;;;;;;;33.10;14.88;;;;;;;4.77;92.18;102717.34;5066048;28;20032;-78
2022/12/01 08:26:16;;;;;;;34.20;15.25;;;;;;;4.78;92.48;102719.94;5063928;28;20043;-78
2022/12/01 08:28:42;;;;;;;32.65;14.32;;;;;;;4.81;92.30;102714.00;5065702;28;20107;-78
2022/12/01 08:31:16;;;;;;;32.45;13.90;;;;;;;4.80;92.20;102715.72;5069237;28;20099;-77
2022/12/01 08:33:41;;;;;;;34.40;15.00;;;;;;;4.85;92.04;102723.56;5066500;28;20020;-78
2022/12/01 08:36:07;;;;;;;34.63;14.33;;;;;;;4.88;92.42;102723.66;5076324;28;20497;-78
2022/12/01 08:38:32;;;;;;;30.67;14.50;;;;;;;4.92;92.41;102728.09;5085499;28;20028;-77
2022/12/01 08:41:03;;;;;;;30.77;14.88;;;;;;;4.94;92.13;102726.44;5076648;28;20020;-77
2022/12/01 08:43:28;;;;;;;31.80;14.07;;;;;;;4.96;92.08;102729.03;5075388;28;20115;-78
2022/12/01 08:45:57;;;;;;;33.08;13.75;;;;;;;4.96;91.88;102729.91;5075761;28;20103;-77
2022/12/01 08:48:22;;;;;;;38.08;15.07;;;;;;;4.97;91.69;102731.66;5068755;28;20024;-77
2022/12/01 08:50:47;;;;;;;34.38;15.18;;;;;;;4.98;91.37;102735.13;5070486;28;20082;-77
2022/12/01 08:53:13;;;;;;;34.63;15.18;;;;;;;4.94;91.32;102731.59;5080539;28;20035;-77
2022/12/01 08:55:38;;;;;;;32.65;14.60;;;;;;;4.94;91.79;102735.84;5090556;28;20021;-77
2022/12/01 08:58:03;;;;;;;33.15;14.73;;;;;;;4.91;91.61;102731.50;5071418;28;20032;-77
2022/12/01 09:00:28;;;;;;;33.95;14.38;;;;;;;4.90;91.35;102734.91;5064476;28;20036;-77
2022/12/01 09:02:54;;;;;;;31.77;13.93;;;;;;;4.88;91.39;102733.97;5075728;28;20380;-78
2022/12/01 09:05:19;;;;;;;33.80;14.98;;;;;;;4.83;91.29;102723.53;5069167;28;20068;-77
2022/12/01 09:08:29;;;;;;;35.70;15.20;;;;;;;4.78;90.73;102726.81;5064465;28;20503;-77
2022/12/01 09:10:29;;;;;;;34.40;15.32;;;;;;;4.73;90.96;102736.13;5075170;28;20032;-77
2022/12/01 09:12:54;;;;;;;31.95;14.02;;;;;;;4.69;91.02;102730.88;5078312;28;20025;-78
2022/12/01 09:15:20;;;;;;;34.33;14.82;;;;;;;4.64;90.61;102737.59;5075093;28;20055;-77
2022/12/01 09:17:45;;;;;;;35.20;15.17;;;;;;;4.60;90.83;102730.63;5076905;28;20028;-78
2022/12/01 09:20:11;;;;;;;37.23;15.10;;;;;;;4.59;90.88;102734.00;5069041;28;20032;-77
2022/12/01 09:22:36;;;;;;;37.25;14.93;;;;;;;4.56;91.21;102741.66;5069565;28;20031;-78
2022/12/01 09:25:01;;;;;;;33.90;15.80;;;;;;;4.53;90.81;102738.97;5060925;28;20373;-78
2022/12/01 09:27:26;;;;;;;35.23;14.83;;;;;;;4.52;91.08;102745.84;5060789;28;20037;-78
2022/12/01 09:29:52;;;;;;;35.53;15.00;;;;;;;4.50;90.88;102744.94;5060860;28;20053;-78
2022/12/01 09:32:17;;;;;;;38.17;14.70;;;;;;;4.49;91.18;102743.19;5063240;28;20396;-78
2022/12/01 09:34:42;;;;;;;35.13;14.97;;;;;;;4.48;91.10;102749.16;5070836;28;20044;-78
2022/12/01 09:37:08;;;;;;;36.05;15.43;;;;;;;4.46;91.10;102747.34;5070524;28;20029;-78
2022/12/01 09:39:33;;;;;;;36.90;15.80;;;;;;;4.44;91.21;102747.31;5062735;28;20028;-78
2022/12/01 09:42:04;;;;;;;32.57;14.40;;;;;;;4.40;91.21;102750.59;5067469;28;20031;-78
2022/12/01 09:44:36;;;;;;;37.58;15.25;;;;;;;4.37;91.00;102753.97;5072843;28;20024;-78
2022/12/01 09:47:33;;;;;;;42.63;17.30;;;;;;;4.39;91.31;102754.91;5069254;28;20048;-78
2022/12/01 09:50:05;;;;;;;34.13;14.70;;;;;;;4.38;91.54;102744.53;5051839;28;20052;-78
2022/12/01 09:52:37;;;;;;;37.35;14.88;;;;;;;4.40;91.69;102748.91;5069899;28;20032;-78
2022/12/01 09:55:09;;;;;;;;;;;;;;;4.49;91.58;102752.59;5071750;28;20402;-78
2022/12/01 09:57:37;;;;;;;34.90;14.43;;;;;;;4.50;91.64;102737.19;5072275;28;19938;-78
2022/12/01 10:00:24;;;;;;;36.22;15.23;;;;;;;4.60;92.24;102740.91;5070994;28;20093;-78
2022/12/01 10:02:55;;;;;;;41.00;15.57;;;;;;;4.68;92.16;102739.44;5070498;28;20024;-78
2022/12/01 10:05:25;;;;;;;38.00;16.42;;;;;;;4.76;91.69;102736.22;5071748;28;20119;-78
2022/12/01 10:07:58;;;;;;;42.83;17.63;;;;;;;4.84;91.83;102734.72;5069845;28;20036;-78
2022/12/01 10:10:31;;;;;;;43.65;16.63;;;;;;;4.93;91.57;102728.94;5069488;28;20106;-78
2022/12/01 10:12:57;;;;;;;42.72;16.30;;;;;;;5.00;91.95;102726.59;5069196;28;20063;-78
2022/12/01 10:15:45;;;;;;;41.05;16.73;;;;;;;5.08;91.40;102728.50;5071137;28;20043;-77
2022/12/01 10:18:30;;;;;;;45.60;17.58;;;;;;;5.14;90.83;102733.81;5072491;28;20045;-78
2022/12/01 10:21:26;;;;;;;43.75;15.38;;;;;;;5.21;91.11;102727.16;5069335;28;20040;-78
2022/12/01 10:24:52;;;;;;;41.17;17.00;;;;;;;5.31;90.80;102727.41;5061732;28;20490;-78
2022/12/01 10:27:36;;;;;;;40.55;16.17;;;;;;;5.33;90.46;102719.72;4995924;28;20520;-78
2022/12/01 10:30:09;;;;;;;42.25;16.65;;;;;;;5.39;90.51;102719.88;4997851;28;21247;-78
2022/12/01 10:32:51;;;;;;;36.88;15.45;;;;;;;5.43;89.68;102716.53;5041888;28;20110;-78
2022/12/01 10:35:20;;;;;;;38.30;15.50;;;;;;;5.46;89.97;102710.59;5069253;28;20096;-78
2022/12/01 10:37:56;;;;;;;39.20;15.48;;;;;;;5.52;89.95;102708.16;5064528;28;20028;-78
2022/12/01 10:40:22;;;;;;;37.58;15.88;;;;;;;5.57;89.54;102714.31;5069963;28;20035;-78
2022/12/01 10:42:49;;;;;;;41.10;15.45;;;;;;;5.61;88.91;102711.00;5061878;28;20467;-78
2022/12/01 10:45:24;;;;;;;34.78;14.82;;;;;;;5.66;89.26;102705.03;5056588;28;20096;-78
2022/12/01 10:48:15;;;;;;;35.53;14.25;;;;;;;5.70;89.27;102699.13;5071847;28;20503;-78
2022/12/01 10:50:42;;;;;;;36.63;14.15;;;;;;;5.73;88.97;102694.91;5070215;28;20561;-78
2022/12/01 10:53:25;;;;;;;38.45;15.45;;;;;;;5.77;88.55;102701.91;5067313;28;20039;-78
2022/12/01 10:56:01;;;;;;;37.50;14.75;;;;;;;5.78;88.40;102700.22;5069032;28;20052;-78
2022/12/01 10:58:27;;;;;;;35.58;14.82;;;;;;;5.80;88.13;102697.66;5068010;28;20024;-78
2022/12/01 11:00:58;;;;;;;34.88;14.48;;;;;;;5.82;88.14;102696.84;5068872;28;20047;-78
2022/12/01 11:03:28;;;;;;;34.83;14.30;;;;;;;5.83;87.95;102696.00;5063335;28;20112;-78
2022/12/01 11:05:59;;;;;;;32.95;13.98;;;;;;;5.81;87.90;102689.91;5070674;28;20036;-78
2022/12/01 11:08:39;;;;;;;35.35;15.07;;;;;;;5.84;87.77;102684.84;5071297;28;20033;-78
2022/12/01 11:11:05;;;;;;;34.97;13.98;;;;;;;5.86;87.93;102696.06;5071396;28;20054;-78
2022/12/01 11:13:34;;;;;;;36.97;15.38;;;;;;;5.85;87.14;102694.34;5069481;28;20104;-78
2022/12/01 11:16:03;;;;;;;34.10;14.25;;;;;;;5.84;87.45;102692.59;5069216;28;20024;-78
2022/12/01 11:18:35;;;;;;;38.05;15.25;;;;;;;5.82;86.06;102689.09;5070689;28;20127;-78
2022/12/01 11:21:09;;;;;;;35.65;14.65;;;;;;;5.81;86.35;102692.50;5069085;28;20032;-78
2022/12/01 11:23:37;;;;;;;35.67;14.77;;;;;;;5.81;86.04;102687.34;5067987;28;20040;-78
2022/12/01 11:26:13;;;;;;;37.67;15.65;;;;;;;5.84;86.28;102692.59;5068397;28;20082;-78